Time;durP1;ratioP1;P1;durP2;ratioP2;P2;SDS_P1;SDS_P2;PMS_P1;PMS_P2;Temp;Humidity;BMP_temperature;BMP_pressure;BME280_temperature;BME280_humidity;BME280_pressure;Samples;Min_cycle;Max_cycle;Signal;HPM_P1;HPM_P2
2021/07/14 00:01:43;;;;;;;0.70;0.38;;;;;;;18.89;58.12;95832.66;4988791;28;20462;-61
2021/07/14 00:04:08;;;;;;;2.42;0.40;;;;;;;18.90;58.45;95836.16;4987788;28;20038;-61
2021/07/14 00:06:34;;;;;;;1.65;0.40;;;;;;;18.88;58.33;95839.16;4988117;28;20510;-61
2021/07/14 00:08:59;;;;;;;2.10;0.35;;;;;;;18.88;58.37;95839.16;4988407;28;20530;-61
2021/07/14 00:11:28;;;;;;;0.80;0.30;;;;;;;18.83;58.50;95833.00;4988325;28;20026;-61
2021/07/14 00:22:10;;;;;;;1.73;0.57;;;;;;;18.83;58.45;95841.91;4968285;28;20081;-61
2021/07/14 00:24:36;;;;;;;0.70;0.40;;;;;;;18.82;58.39;95851.09;4969231;28;20029;-61
2021/07/14 00:27:05;;;;;;;1.15;0.43;;;;;;;18.85;58.22;95855.91;4968037;28;20109;-61
2021/07/14 00:29:30;;;;;;;1.63;0.40;;;;;;;18.84;58.14;95851.59;4968815;28;20035;-61
2021/07/14 00:31:56;;;;;;;1.85;0.32;;;;;;;18.83;58.27;95854.59;4969685;28;20034;-61
2021/07/14 00:34:21;;;;;;;1.48;0.40;;;;;;;18.84;58.40;95861.59;4968647;28;20049;-61
2021/07/14 00:36:46;;;;;;;1.45;0.30;;;;;;;18.81;58.07;95856.75;4969141;28;20371;-61
2021/07/14 00:39:12;;;;;;;1.48;0.32;;;;;;;18.82;58.05;95861.09;4968707;28;20033;-61
2021/07/14 00:41:37;;;;;;;0.68;0.30;;;;;;;18.77;58.28;95851.13;4968973;28;20027;-61
2021/07/14 00:44:03;;;;;;;0.55;0.30;;;;;;;18.80;58.50;95855.16;4967643;28;20034;-61
2021/07/14 00:46:28;;;;;;;1.95;0.40;;;;;;;18.80;58.35;95860.56;4967403;28;20041;-61
2021/07/14 00:48:58;;;;;;;0.85;0.40;;;;;;;18.79;58.33;95861.66;4969149;28;20623;-61
2021/07/14 00:51:24;;;;;;;1.23;0.30;;;;;;;18.77;58.31;95861.94;4968887;28;20030;-61
2021/07/14 00:53:50;;;;;;;1.50;0.40;;;;;;;18.75;58.39;95870.31;4951459;28;20093;-61
2021/07/14 00:56:15;;;;;;;0.80;0.40;;;;;;;18.79;58.23;95875.16;4967466;28;20034;-61
2021/07/14 00:58:41;;;;;;;1.50;0.50;;;;;;;18.78;58.13;95877.06;4967813;28;20019;-62
2021/07/14 01:01:06;;;;;;;2.15;1.20;;;;;;;18.76;58.38;95868.44;4968735;28;20023;-61
2021/07/14 01:03:40;;;;;;;1.38;0.30;;;;;;;18.76;58.10;95866.53;4967099;28;20026;-61
2021/07/14 01:06:05;;;;;;;1.38;0.40;;;;;;;18.72;58.29;95867.41;4951880;28;20105;-61
2021/07/14 01:08:54;;;;;;;0.70;0.30;;;;;;;18.74;58.14;95871.44;4967354;28;20109;-62
2021/07/14 01:11:20;;;;;;;1.70;0.45;;;;;;;18.75;58.37;95872.22;4967566;28;20027;-62
2021/07/14 01:14:09;;;;;;;1.73;0.35;;;;;;;18.75;58.55;95885.72;4967640;28;20054;-62
2021/07/14 01:16:43;;;;;;;1.05;0.40;;;;;;;18.74;58.28;95884.91;4974077;28;20039;-62
2021/07/14 01:19:47;;;;;;;0.82;0.40;;;;;;;18.74;58.16;95894.91;4987360;28;20030;-62
2021/07/14 01:22:42;;;;;;;1.95;0.50;;;;;;;18.70;57.99;95885.72;4987807;28;20030;-62
2021/07/14 01:25:11;;;;;;;1.17;0.40;;;;;;;18.72;58.30;95888.97;4979791;28;20136;-62
2021/07/14 01:27:39;;;;;;;1.10;0.43;;;;;;;18.69;58.35;95879.53;4970824;28;20450;-61
2021/07/14 01:30:07;;;;;;;1.02;0.35;;;;;;;18.71;57.99;95882.78;4970556;28;20029;-61
2021/07/14 01:32:35;;;;;;;1.30;0.50;;;;;;;18.72;58.01;95878.19;4991188;28;20380;-61
2021/07/14 01:35:06;;;;;;;1.27;0.45;;;;;;;18.69;58.38;95868.72;4988598;28;20026;-61
2021/07/14 01:37:31;;;;;;;0.90;0.30;;;;;;;18.70;58.32;95869.53;4974783;28;20033;-61
2021/07/14 01:39:58;;;;;;;1.63;0.40;;;;;;;18.69;58.24;95868.72;4990683;28;20023;-61
2021/07/14 01:42:24;;;;;;;1.88;0.30;;;;;;;18.68;57.92;95872.53;4971309;28;20034;-61
2021/07/14 01:44:51;;;;;;;1.45;0.40;;;;;;;18.68;58.08;95869.03;4970886;28;20031;-61
2021/07/14 01:47:16;;;;;;;1.95;0.40;;;;;;;18.66;58.34;95866.59;4970889;28;20027;-61
2021/07/14 01:49:41;;;;;;;0.73;0.35;;;;;;;18.65;58.11;95861.50;4970793;28;20045;-61
2021/07/14 01:52:16;;;;;;;2.03;0.40;;;;;;;18.67;58.25;95864.72;4954701;28;20116;-61
2021/07/14 01:54:41;;;;;;;0.52;0.32;;;;;;;18.62;58.40;95852.09;4954682;28;20042;-61
2021/07/14 01:57:07;;;;;;;2.00;0.40;;;;;;;18.65;58.15;95856.13;4970581;28;20023;-61
2021/07/14 01:59:32;;;;;;;0.75;0.35;;;;;;;18.61;57.83;95855.09;4954508;28;20030;-62
2021/07/14 02:01:59;;;;;;;1.45;0.38;;;;;;;18.63;58.30;95872.59;4970598;28;20235;-62
2021/07/14 02:04:31;;;;;;;0.80;0.30;;;;;;;18.61;58.36;95869.38;4971961;28;20031;-61
2021/07/14 02:07:17;;;;;;;0.98;0.40;;;;;;;18.62;58.33;95868.28;4955617;28;20037;-61
2021/07/14 02:09:43;;;;;;;0.85;0.40;;;;;;;18.61;58.29;95874.75;4971658;28;20030;-62
2021/07/14 02:12:20;;;;;;;0.80;0.40;;;;;;;18.61;57.93;95876.66;4970634;28;20018;-61
2021/07/14 02:14:53;;;;;;;0.98;0.40;;;;;;;18.60;58.14;95875.88;4970176;28;20035;-61
2021/07/14 02:17:20;;;;;;;0.75;0.40;;;;;;;18.59;58.08;95886.91;4985530;28;20825;-61
2021/07/14 02:19:55;;;;;;;1.38;0.30;;;;;;;18.60;57.98;95888.56;4973571;28;20084;-61
2021/07/14 02:22:20;;;;;;;1.50;0.40;;;;;;;18.56;57.94;95890.22;4989498;28;20023;-61
2021/07/14 02:24:46;;;;;;;1.95;0.47;;;;;;;18.58;58.15;95893.41;4989454;28;20018;-61
2021/07/14 02:27:11;;;;;;;1.10;0.40;;;;;;;18.58;58.27;95883.41;4990510;28;20088;-60
2021/07/14 02:29:37;;;;;;;0.65;0.30;;;;;;;18.57;58.15;95886.41;4989841;28;20804;-61
2021/07/14 02:32:04;;;;;;;1.08;0.40;;;;;;;18.56;58.15;95887.53;4990894;28;20030;-60
2021/07/14 02:34:29;;;;;;;1.33;0.40;;;;;;;18.52;57.87;95885.38;4990377;28;20089;-61
2021/07/14 02:36:56;;;;;;;0.60;0.30;;;;;;;18.53;58.21;95887.00;4990873;28;20022;-61
2021/07/14 02:39:21;;;;;;;1.95;0.30;;;;;;;18.53;58.17;95878.09;4990340;28;20034;-61
2021/07/14 02:41:54;;;;;;;1.30;0.63;;;;;;;18.54;58.29;95885.09;4990490;28;20038;-60
2021/07/14 02:44:20;;;;;;;2.00;0.47;;;;;;;18.51;57.83;95886.44;4989988;28;20101;-61
2021/07/14 02:46:46;;;;;;;0.98;0.30;;;;;;;18.49;58.02;95883.25;4988959;28;20030;-61
2021/07/14 02:49:12;;;;;;;1.48;0.30;;;;;;;18.50;57.88;95876.75;4988871;28;20486;-60
2021/07/14 02:51:38;;;;;;;1.67;0.30;;;;;;;18.48;58.01;95878.97;4972881;28;20518;-61
2021/07/14 02:54:13;;;;;;;0.40;0.28;;;;;;;18.50;58.19;95884.84;4972564;28;20054;-61
2021/07/14 02:56:39;;;;;;;0.50;0.30;;;;;;;18.50;58.00;95882.16;4973441;28;20565;-61
2021/07/14 02:59:07;;;;;;;1.25;0.30;;;;;;;18.45;58.10;95871.44;4972909;28;20117;-61
2021/07/14 03:01:33;;;;;;;0.75;0.60;;;;;;;18.48;57.90;95875.44;4988740;28;20026;-61
2021/07/14 03:03:59;;;;;;;2.45;0.73;;;;;;;18.44;57.83;95879.78;4990075;28;20033;-61
2021/07/14 03:06:24;;;;;;;1.70;0.35;;;;;;;18.46;57.59;95873.03;4972637;28;20018;-61
2021/07/14 03:08:50;;;;;;;1.10;0.30;;;;;;;18.46;57.81;95873.03;4988796;28;20027;-60
2021/07/14 03:11:16;;;;;;;0.80;0.30;;;;;;;18.46;58.04;95869.53;4988877;28;20030;-61
2021/07/14 03:13:43;;;;;;;0.52;0.30;;;;;;;18.42;57.63;95869.31;4988608;28;20027;-61
2021/07/14 03:16:09;;;;;;;0.90;0.30;;;;;;;18.46;58.06;95877.63;4983716;28;20069;-61
2021/07/14 03:18:34;;;;;;;0.90;0.20;;;;;;;18.45;57.74;95870.63;4970455;28;20030;-61
2021/07/14 03:21:01;;;;;;;1.30;0.28;;;;;;;18.40;57.60;95863.38;4953340;28;20030;-61
2021/07/14 03:23:27;;;;;;;0.90;0.35;;;;;;;18.43;58.05;95860.13;4969148;28;20051;-61
2021/07/14 03:25:53;;;;;;;1.42;0.30;;;;;;;18.41;57.83;95864.19;4970113;28;20165;-61
2021/07/14 03:28:19;;;;;;;1.52;0.40;;;;;;;18.41;57.73;95865.00;4984456;28;20109;-61
2021/07/14 03:30:46;;;;;;;0.40;0.20;;;;;;;18.40;58.03;95863.38;4989252;28;20027;-61
2021/07/14 03:33:11;;;;;;;0.52;0.20;;;;;;;18.41;57.56;95869.56;4989151;28;20030;-61
2021/07/14 03:35:37;;;;;;;0.63;0.32;;;;;;;18.39;57.60;95867.16;4989087;28;20034;-61
2021/07/14 03:38:05;;;;;;;1.13;0.20;;;;;;;18.40;57.53;95868.78;4987973;28;20549;-61
2021/07/14 03:40:31;;;;;;;0.80;0.40;;;;;;;18.39;57.79;95867.16;4985760;28;20097;-61
2021/07/14 03:42:57;;;;;;;0.88;0.30;;;;;;;18.38;57.61;95868.25;4980865;28;20117;-61
2021/07/14 03:45:22;;;;;;;0.95;0.20;;;;;;;18.39;57.71;95872.56;4988644;28;20030;-61
2021/07/14 03:47:47;;;;;;;2.55;0.30;;;;;;;18.37;57.41;95869.34;4987773;28;20033;-61
2021/07/14 03:50:13;;;;;;;0.77;0.30;;;;;;;18.38;57.87;95872.84;4987335;28;20037;-61
2021/07/14 03:52:39;;;;;;;0.60;0.22;;;;;;;18.34;57.92;95861.84;4988906;28;20073;-60
2021/07/14 03:55:05;;;;;;;1.30;0.30;;;;;;;18.34;57.69;95864.53;4986857;28;20088;-61
2021/07/14 03:57:31;;;;;;;2.22;0.80;;;;;;;18.35;57.67;95865.34;4988573;28;20026;-61
2021/07/14 03:59:57;;;;;;;0.55;0.30;;;;;;;18.33;57.28;95860.22;4987942;28;20053;-61
2021/07/14 04:02:22;;;;;;;0.60;0.20;;;;;;;18.32;57.32;95864.00;4987289;28;20026;-61
2021/07/14 04:04:48;;;;;;;1.65;0.20;;;;;;;18.31;57.42;95862.41;4987544;28;20158;-61
2021/07/14 04:07:15;;;;;;;1.10;0.50;;;;;;;18.34;57.51;95877.19;4987126;28;20027;-61
2021/07/14 04:09:45;;;;;;;0.75;0.22;;;;;;;18.33;57.72;95879.09;4987392;28;20066;-61
2021/07/14 04:12:10;;;;;;;1.33;0.28;;;;;;;18.32;57.50;95880.19;4988293;28;20054;-62
2021/07/14 04:14:36;;;;;;;3.20;0.38;;;;;;;18.32;57.55;95880.19;4961096;28;20375;-61
2021/07/14 04:17:01;;;;;;;1.20;0.20;;;;;;;18.29;57.31;95875.34;4988629;28;20033;-62
2021/07/14 04:19:27;;;;;;;1.25;0.20;;;;;;;18.23;57.30;95863.81;4988752;28;20046;-61
2021/07/14 04:21:53;;;;;;;1.95;0.30;;;;;;;18.29;57.55;95870.75;4988679;28;20120;-62
2021/07/14 04:24:19;;;;;;;0.50;0.25;;;;;;;18.29;57.52;95875.34;4988131;28;20506;-62
2021/07/14 04:26:44;;;;;;;0.65;0.30;;;;;;;18.28;57.40;95881.84;4987488;28;20542;-61
2021/07/14 04:29:10;;;;;;;0.85;0.20;;;;;;;18.29;57.57;95878.84;4986845;28;20030;-61
2021/07/14 04:31:35;;;;;;;1.67;0.28;;;;;;;18.27;57.58;95880.25;4988604;28;20034;-59
2021/07/14 04:34:01;;;;;;;2.47;0.28;;;;;;;18.27;57.35;95875.66;4987994;28;20026;-60
2021/07/14 04:36:27;;;;;;;1.08;0.40;;;;;;;18.24;57.37;95870.81;4988014;28;20041;-60
2021/07/14 04:38:52;;;;;;;1.38;0.30;;;;;;;18.24;57.51;95876.22;4988267;28;20093;-61
2021/07/14 04:41:17;;;;;;;1.17;0.30;;;;;;;18.25;57.48;95883.19;4986460;28;20088;-60
2021/07/14 04:43:43;;;;;;;0.50;0.30;;;;;;;18.25;57.62;95877.00;4988173;28;20034;-60
2021/07/14 04:46:09;;;;;;;0.63;0.20;;;;;;;18.24;57.52;95886.19;4988203;28;20033;-61
2021/07/14 04:48:34;;;;;;;0.70;0.25;;;;;;;18.22;57.61;95882.97;4987542;28;20022;-61
2021/07/14 04:51:00;;;;;;;2.17;0.40;;;;;;;18.23;57.55;95882.69;4987090;28;20030;-61
2021/07/14 04:53:25;;;;;;;1.08;0.20;;;;;;;18.24;57.91;95886.19;4987815;28;20034;-60
2021/07/14 04:55:51;;;;;;;1.65;0.20;;;;;;;18.22;57.61;95883.75;4987916;28;20032;-61
2021/07/14 04:58:16;;;;;;;2.35;0.50;;;;;;;18.21;57.87;95884.06;4986758;28;20184;-61
2021/07/14 05:00:42;;;;;;;1.17;0.30;;;;;;;18.23;57.85;95893.47;4988106;28;20034;-62
2021/07/14 05:03:07;;;;;;;1.45;0.30;;;;;;;18.23;57.79;95893.47;4986769;28;20030;-61
2021/07/14 05:05:32;;;;;;;0.95;0.30;;;;;;;18.22;57.72;95888.34;4987531;28;20026;-61
2021/07/14 05:07:58;;;;;;;1.52;0.30;;;;;;;18.20;57.67;95887.84;4988074;28;20033;-60
2021/07/14 05:10:28;;;;;;;1.17;0.20;;;;;;;18.19;58.03;95886.22;4987555;28;20038;-61
2021/07/14 05:12:54;;;;;;;1.35;0.20;;;;;;;18.20;57.98;95891.34;4965524;28;20034;-62
2021/07/14 05:15:20;;;;;;;1.70;0.40;;;;;;;18.20;57.87;95888.66;4972335;28;20034;-61
2021/07/14 05:17:45;;;;;;;1.83;0.30;;;;;;;18.21;57.85;95887.56;4987371;28;20045;-61
2021/07/14 05:20:10;;;;;;;0.95;0.20;;;;;;;18.19;57.97;95887.06;4986473;28;20026;-62
2021/07/14 05:22:36;;;;;;;0.75;0.20;;;;;;;18.17;58.17;95888.41;4981402;28;20030;-61
2021/07/14 05:25:02;;;;;;;0.93;0.30;;;;;;;18.18;58.01;95892.72;4986313;28;20038;-62
2021/07/14 05:27:28;;;;;;;1.60;0.30;;;;;;;18.20;58.42;95890.53;4986235;28;20035;-62
2021/07/14 05:29:54;;;;;;;0.88;0.40;;;;;;;18.19;58.57;95894.31;4987528;28;20030;-62
2021/07/14 05:32:19;;;;;;;2.88;0.30;;;;;;;18.19;58.64;95899.69;4977380;28;20035;-62
2021/07/14 05:34:45;;;;;;;3.80;0.40;;;;;;;18.20;59.56;95890.53;4984107;28;20096;-63
2021/07/14 05:37:10;;;;;;;8.27;7.53;;;;;;;18.24;60.39;95891.59;4977040;28;20026;-62
2021/07/14 05:39:36;;;;;;;16.60;15.38;;;;;;;18.24;61.91;95892.38;4975911;28;20069;-60
2021/07/14 05:42:04;;;;;;;15.05;13.98;;;;;;;18.25;61.85;95893.19;4967524;28;20031;-61
2021/07/14 05:44:30;;;;;;;16.90;12.07;;;;;;;18.23;61.90;95892.69;4966386;28;20478;-61
2021/07/14 05:46:56;;;;;;;12.85;11.43;;;;;;;18.24;62.05;95902.38;4972236;28;20065;-62
2021/07/14 05:49:21;;;;;;;30.65;12.60;;;;;;;18.23;61.71;95898.06;4981560;28;20398;-62
2021/07/14 05:51:47;;;;;;;22.33;12.05;;;;;;;18.23;61.33;95903.47;4982455;28;20376;-62
2021/07/14 05:54:12;;;;;;;29.63;11.50;;;;;;;18.23;61.08;95900.78;4986755;28;20030;-61
2021/07/14 05:56:38;;;;;;;23.13;9.88;;;;;;;18.22;61.11;95904.53;4987196;28;20034;-61
2021/07/14 05:59:03;;;;;;;20.08;9.95;;;;;;;18.22;61.58;95902.63;4987225;28;20030;-62
